createdAt,value
2023-01-19T00:00:38.679Z,26.60
2023-01-19T00:06:07.154Z,28.60
2023-01-19T00:11:34.632Z,27.60
2023-01-19T00:16:50.049Z,30.80
2023-01-19T00:22:06.721Z,30.20
2023-01-19T00:27:21.226Z,27.70
2023-01-19T00:32:30.489Z,26.90
2023-01-19T00:38:00.240Z,29.00
2023-01-19T00:43:48.133Z,28.40
2023-01-19T00:49:12.281Z,28.20
2023-01-19T00:54:35.800Z,26.20
2023-01-19T01:00:21.715Z,24.60
2023-01-19T01:05:34.207Z,27.00
2023-01-19T01:11:34.497Z,24.90
2023-01-19T01:17:25.354Z,25.00
2023-01-19T01:23:11.550Z,25.90
2023-01-19T01:28:47.714Z,26.10
2023-01-19T01:34:39.752Z,26.10
2023-01-19T01:40:28.769Z,26.10
2023-01-19T01:46:24.755Z,26.00
2023-01-19T01:53:06.684Z,22.60
2023-01-19T01:58:37.617Z,24.20
2023-01-19T02:04:16.834Z,25.90
2023-01-19T02:10:12.848Z,25.20
2023-01-19T02:16:00.976Z,22.80
2023-01-19T02:22:12.605Z,18.90
2023-01-19T02:27:55.065Z,12.40
2023-01-19T02:34:10.532Z,23.30
2023-01-19T02:40:21.869Z,22.50
2023-01-19T02:46:02.501Z,21.20
2023-01-19T02:52:04.549Z,28.50
2023-01-19T02:58:21.372Z,23.80
2023-01-19T03:04:31.353Z,19.50
2023-01-19T03:10:49.903Z,18.30
2023-01-19T03:16:44.237Z,20.80
2023-01-19T03:22:44.085Z,23.40
2023-01-19T03:28:29.207Z,25.80
2023-01-19T03:34:23.101Z,20.10
2023-01-19T03:40:12.535Z,18.40
2023-01-19T03:45:59.033Z,17.60
2023-01-19T03:51:41.323Z,18.10
2023-01-19T03:56:45.344Z,18.20
2023-01-19T04:02:24.742Z,20.10
2023-01-19T04:07:54.128Z,15.50
2023-01-19T04:13:14.392Z,18.60
2023-01-19T04:18:33.717Z,26.20
2023-01-19T04:24:17.162Z,18.90
2023-01-19T04:29:41.900Z,15.70
2023-01-19T04:35:38.465Z,16.70
2023-01-19T04:40:44.301Z,16.00
2023-01-19T04:46:07.880Z,19.60
2023-01-19T04:51:43.112Z,14.50
2023-01-19T04:56:52.338Z,16.10
2023-01-19T05:02:26.966Z,19.40
2023-01-19T05:07:32.746Z,12.30
2023-01-19T05:12:47.206Z,20.10
2023-01-19T05:17:58.133Z,16.80
2023-01-19T05:23:07.590Z,20.90
2023-01-19T05:28:47.243Z,19.70
2023-01-19T05:34:42.545Z,15.80
2023-01-19T05:39:56.358Z,14.10
2023-01-19T05:46:02.161Z,15.50
2023-01-19T05:51:46.163Z,32.40
2023-01-19T05:56:52.570Z,17.60
2023-01-19T06:02:03.732Z,14.60
2023-01-19T06:07:49.039Z,21.50
2023-01-19T06:12:57.916Z,17.30
2023-01-19T06:18:04.915Z,19.60
2023-01-19T06:23:11.484Z,25.60
2023-01-19T06:28:17.270Z,23.90
2023-01-19T06:33:28.135Z,22.00
2023-01-19T06:38:55.578Z,23.90
2023-01-19T06:44:12.290Z,36.00
2023-01-19T06:49:36.106Z,23.70
2023-01-19T06:54:49.743Z,19.00
2023-01-19T06:59:52.961Z,24.80
2023-01-19T07:05:02.238Z,40.60
2023-01-19T07:10:08.416Z,28.80
2023-01-19T07:15:20.541Z,21.30
2023-01-19T07:20:52.224Z,20.40
2023-01-19T07:25:59.157Z,20.20
2023-01-19T07:31:22.583Z,26.30
2023-01-19T07:36:37.341Z,25.40
2023-01-19T07:41:43.305Z,32.20
2023-01-19T07:46:46.675Z,31.50
2023-01-19T07:51:56.319Z,32.10
2023-01-19T07:57:00.996Z,26.50
2023-01-19T08:02:48.553Z,33.70
2023-01-19T08:07:54.259Z,30.50
2023-01-19T08:13:01.793Z,29.10
2023-01-19T08:18:21.585Z,23.60
2023-01-19T08:23:48.487Z,20.40
2023-01-19T08:28:51.794Z,15.40
2023-01-19T08:34:14.507Z,20.40
2023-01-19T08:39:24.025Z,21.10
2023-01-19T08:44:57.531Z,29.20
2023-01-19T08:50:04.055Z,22.60
2023-01-19T08:55:12.605Z,27.50
2023-01-19T09:01:11.060Z,28.30
2023-01-19T09:06:18.680Z,24.70
2023-01-19T09:11:25.255Z,26.00
2023-01-19T09:16:29.820Z,29.60
2023-01-19T09:21:33.155Z,30.90
2023-01-19T09:26:51.748Z,32.70
2023-01-19T09:32:00.172Z,26.00
2023-01-19T09:37:46.107Z,27.30
2023-01-19T09:43:04.690Z,30.10
2023-01-19T09:48:58.245Z,33.00
2023-01-19T09:54:56.686Z,35.40
2023-01-19T10:00:00.003Z,26.40
2023-01-19T10:05:28.639Z,26.90
2023-01-19T10:10:33.467Z,27.90
2023-01-19T10:15:59.191Z,28.80
2023-01-19T10:21:40.238Z,25.80
2023-01-19T10:26:53.269Z,27.50
2023-01-19T10:32:22.067Z,22.60
2023-01-19T10:38:22.398Z,23.10
2023-01-19T10:44:11.018Z,20.90
2023-01-19T10:50:06.023Z,24.50
2023-01-19T10:55:38.221Z,25.90
2023-01-19T11:00:47.916Z,19.80
2023-01-19T11:06:01.871Z,24.00
2023-01-19T11:11:08.558Z,22.70
2023-01-19T11:16:58.419Z,23.20
2023-01-19T11:23:13.803Z,30.00
2023-01-19T11:28:54.637Z,28.10
2023-01-19T11:34:46.630Z,25.10
2023-01-19T11:40:05.073Z,25.50
2023-01-19T11:45:38.623Z,23.80
2023-01-19T11:51:08.615Z,21.10
2023-01-19T11:56:36.248Z,24.00
2023-01-19T12:01:55.027Z,24.20
2023-01-19T12:07:54.241Z,20.60
2023-01-19T12:13:08.866Z,46.80
2023-01-19T12:19:03.730Z,21.60
2023-01-19T12:25:02.337Z,27.00
2023-01-19T12:30:46.825Z,25.50
2023-01-19T12:36:40.325Z,31.10
2023-01-19T12:41:48.284Z,30.50
2023-01-19T12:47:24.636Z,25.30
2023-01-19T12:52:48.095Z,22.40
2023-01-19T12:58:22.430Z,35.60
2023-01-19T13:03:45.627Z,31.50
2023-01-19T13:09:24.252Z,26.90
2023-01-19T13:14:42.700Z,32.50
2023-01-19T13:19:56.824Z,60.20
2023-01-19T13:25:48.369Z,35.60
2023-01-19T13:31:08.784Z,33.00
2023-01-19T13:36:45.060Z,27.00
2023-01-19T13:42:41.946Z,26.20
2023-01-19T13:47:54.193Z,30.00
2023-01-19T13:53:01.569Z,25.10
2023-01-19T13:58:26.111Z,24.00
2023-01-19T14:03:52.492Z,24.10
2023-01-19T14:09:18.907Z,25.60
2023-01-19T14:14:32.073Z,30.30
2023-01-19T14:19:50.061Z,32.10
2023-01-19T14:24:56.629Z,27.90
2023-01-19T14:30:35.986Z,28.90
2023-01-19T14:35:39.206Z,27.50
2023-01-19T14:40:45.920Z,27.10
2023-01-19T14:45:56.354Z,29.70
2023-01-19T14:51:19.182Z,31.60
2023-01-19T14:56:29.814Z,27.60
2023-01-19T15:01:42.411Z,25.30
2023-01-19T15:06:55.522Z,36.60
2023-01-19T15:12:02.475Z,37.30
2023-01-19T15:17:05.941Z,29.10
2023-01-19T15:22:13.734Z,44.80
2023-01-19T15:27:21.774Z,35.70
2023-01-19T15:32:25.127Z,24.90
2023-01-19T15:37:33.143Z,31.90
2023-01-19T15:42:39.565Z,36.30
2023-01-19T15:47:58.665Z,26.50
2023-01-19T15:53:02.358Z,22.20
2023-01-19T15:58:20.755Z,20.70
2023-01-19T16:03:27.256Z,23.30
2023-01-19T16:08:39.627Z,28.00
2023-01-19T16:13:47.698Z,29.30
2023-01-19T16:19:13.932Z,28.40
2023-01-19T16:24:30.852Z,24.50
2023-01-19T16:29:37.974Z,28.40
2023-01-19T16:34:44.559Z,36.10
2023-01-19T16:39:50.870Z,27.20
2023-01-19T16:45:04.460Z,36.10
2023-01-19T16:50:38.913Z,28.20
2023-01-19T16:55:47.468Z,26.30
2023-01-19T17:00:51.064Z,31.50
2023-01-19T17:05:54.683Z,37.30
2023-01-19T17:11:04.970Z,34.00
2023-01-19T17:16:09.856Z,26.40
2023-01-19T17:21:21.925Z,33.10
2023-01-19T17:26:37.772Z,33.10
2023-01-19T17:31:44.566Z,24.60
2023-01-19T17:37:02.853Z,33.60
2023-01-19T17:42:06.407Z,24.90
2023-01-19T17:47:09.872Z,24.50
2023-01-19T17:52:20.245Z,21.60
2023-01-19T17:57:26.905Z,26.80
2023-01-19T18:02:59.143Z,24.40
2023-01-19T18:08:02.917Z,27.90
2023-01-19T18:13:06.152Z,30.70
2023-01-19T18:18:09.116Z,25.80
2023-01-19T18:23:21.158Z,26.10
2023-01-19T18:28:44.563Z,22.20
2023-01-19T18:33:53.303Z,21.00
2023-01-19T18:39:09.898Z,17.30
2023-01-19T18:44:16.393Z,16.80
2023-01-19T18:49:27.530Z,20.50
2023-01-19T18:54:33.147Z,25.80
2023-01-19T18:59:42.695Z,27.10
2023-01-19T19:04:45.812Z,29.10
2023-01-19T19:09:59.137Z,24.10
2023-01-19T19:15:02.532Z,19.80
2023-01-19T19:20:06.271Z,20.70
2023-01-19T19:25:10.200Z,15.20
2023-01-19T19:30:23.953Z,11.30
2023-01-19T19:35:36.540Z,18.40
2023-01-19T19:40:40.276Z,30.70
2023-01-19T19:45:44.969Z,43.70
2023-01-19T19:50:48.526Z,27.90
2023-01-19T19:56:06.522Z,21.20
2023-01-19T20:01:12.870Z,17.00
2023-01-19T20:06:23.417Z,17.40
2023-01-19T20:12:20.078Z,15.60
2023-01-19T20:17:43.504Z,37.40
2023-01-19T20:23:22.761Z,18.70
2023-01-19T20:29:07.993Z,11.20
2023-01-19T20:34:14.907Z,8.40
2023-01-19T20:39:20.823Z,9.20
2023-01-19T20:44:29.178Z,16.20
2023-01-19T20:49:43.258Z,9.30
2023-01-19T20:55:09.012Z,11.00
2023-01-19T21:01:31.203Z,13.90
2023-01-19T21:07:45.667Z,10.30
2023-01-19T21:13:09.617Z,10.40
2023-01-19T21:18:35.618Z,12.00
2023-01-19T21:23:41.220Z,8.90
2023-01-19T21:28:55.889Z,11.70
2023-01-19T21:33:59.306Z,14.90
2023-01-19T21:39:05.889Z,38.90
2023-01-19T21:44:11.345Z,16.90
2023-01-19T21:50:08.402Z,18.00
2023-01-19T21:55:30.350Z,18.20
2023-01-19T22:07:02.330Z,15.30
2023-01-19T22:12:34.336Z,16.10
2023-01-19T22:18:12.187Z,17.30
2023-01-19T22:23:50.553Z,16.90
2023-01-19T22:29:06.002Z,15.10
2023-01-19T22:34:21.762Z,16.10
2023-01-19T22:40:16.697Z,16.30
2023-01-19T22:45:45.666Z,16.10
2023-01-19T22:50:52.022Z,17.10
2023-01-19T22:56:44.024Z,16.40
2023-01-19T23:03:06.710Z,14.60
2023-01-19T23:08:10.492Z,18.20
2023-01-19T23:13:58.144Z,14.80
2023-01-19T23:19:07.605Z,14.00
2023-01-19T23:24:31.519Z,11.00
2023-01-19T23:29:35.328Z,17.40
2023-01-19T23:35:02.451Z,12.20
2023-01-19T23:40:38.628Z,13.50
2023-01-19T23:45:44.672Z,12.50
2023-01-19T23:51:12.423Z,13.90
2023-01-19T23:57:07.962Z,14.90
